sensor_id;sensor_type;location;lat;lon;timestamp;P1;durP1;ratioP1;P2;durP2;ratioP2
8159;SDS011;27404;52.398;9.646;2022-11-15T00:00:25;24.63;;;14.80;;
8159;SDS011;27404;52.398;9.646;2022-11-15T00:02:54;28.67;;;15.87;;
8159;SDS011;27404;52.398;9.646;2022-11-15T00:05:20;25.77;;;15.07;;
8159;SDS011;27404;52.398;9.646;2022-11-15T00:07:46;26.03;;;15.03;;
8159;SDS011;27404;52.398;9.646;2022-11-15T00:10:11;23.53;;;15.30;;
8159;SDS011;27404;52.398;9.646;2022-11-15T00:12:37;24.43;;;15.03;;
8159;SDS011;27404;52.398;9.646;2022-11-15T00:15:03;25.67;;;14.83;;
8159;SDS011;27404;52.398;9.646;2022-11-15T00:17:29;23.17;;;14.93;;
8159;SDS011;27404;52.398;9.646;2022-11-15T00:19:54;26.77;;;14.47;;
8159;SDS011;27404;52.398;9.646;2022-11-15T00:22:20;26.03;;;16.30;;
8159;SDS011;27404;52.398;9.646;2022-11-15T00:24:45;29.33;;;15.67;;
8159;SDS011;27404;52.398;9.646;2022-11-15T00:27:11;25.80;;;14.90;;
8159;SDS011;27404;52.398;9.646;2022-11-15T00:29:36;22.23;;;14.17;;
8159;SDS011;27404;52.398;9.646;2022-11-15T00:32:03;26.17;;;14.83;;
8159;SDS011;27404;52.398;9.646;2022-11-15T00:34:30;24.83;;;14.97;;
8159;SDS011;27404;52.398;9.646;2022-11-15T00:36:55;24.37;;;13.73;;
8159;SDS011;27404;52.398;9.646;2022-11-15T00:39:21;22.20;;;13.83;;
8159;SDS011;27404;52.398;9.646;2022-11-15T00:41:47;22.53;;;12.80;;
8159;SDS011;27404;52.398;9.646;2022-11-15T00:44:12;18.77;;;12.47;;
8159;SDS011;27404;52.398;9.646;2022-11-15T00:46:37;20.30;;;11.97;;
8159;SDS011;27404;52.398;9.646;2022-11-15T00:49:03;19.07;;;12.37;;
8159;SDS011;27404;52.398;9.646;2022-11-15T00:51:28;18.67;;;11.40;;
8159;SDS011;27404;52.398;9.646;2022-11-15T00:53:54;17.00;;;11.73;;
8159;SDS011;27404;52.398;9.646;2022-11-15T00:56:19;21.43;;;11.80;;
8159;SDS011;27404;52.398;9.646;2022-11-15T00:58:45;22.03;;;11.37;;
8159;SDS011;27404;52.398;9.646;2022-11-15T01:01:11;19.53;;;12.40;;
8159;SDS011;27404;52.398;9.646;2022-11-15T01:03:38;20.63;;;11.83;;
8159;SDS011;27404;52.398;9.646;2022-11-15T01:06:05;20.97;;;11.30;;
8159;SDS011;27404;52.398;9.646;2022-11-15T01:08:31;17.53;;;11.20;;
8159;SDS011;27404;52.398;9.646;2022-11-15T01:11:03;20.87;;;11.13;;
8159;SDS011;27404;52.398;9.646;2022-11-15T01:13:31;21.30;;;10.90;;
8159;SDS011;27404;52.398;9.646;2022-11-15T01:16:34;21.07;;;10.77;;
8159;SDS011;27404;52.398;9.646;2022-11-15T01:18:52;16.73;;;10.67;;
8159;SDS011;27404;52.398;9.646;2022-11-15T01:21:18;14.97;;;9.53;;
8159;SDS011;27404;52.398;9.646;2022-11-15T01:23:44;14.70;;;10.50;;
8159;SDS011;27404;52.398;9.646;2022-11-15T01:26:11;13.37;;;9.47;;
8159;SDS011;27404;52.398;9.646;2022-11-15T01:28:39;15.60;;;10.23;;
8159;SDS011;27404;52.398;9.646;2022-11-15T01:31:07;14.30;;;8.73;;
8159;SDS011;27404;52.398;9.646;2022-11-15T01:33:37;16.07;;;9.80;;
8159;SDS011;27404;52.398;9.646;2022-11-15T01:36:06;18.27;;;9.23;;
8159;SDS011;27404;52.398;9.646;2022-11-15T01:38:35;13.77;;;9.33;;
8159;SDS011;27404;52.398;9.646;2022-11-15T01:41:01;12.83;;;9.13;;
8159;SDS011;27404;52.398;9.646;2022-11-15T01:43:28;12.60;;;8.40;;
8159;SDS011;27404;52.398;9.646;2022-11-15T01:46:37;12.70;;;7.90;;
8159;SDS011;27404;52.398;9.646;2022-11-15T01:48:49;14.60;;;8.27;;
8159;SDS011;27404;52.398;9.646;2022-11-15T01:51:16;14.40;;;8.47;;
8159;SDS011;27404;52.398;9.646;2022-11-15T01:53:44;11.67;;;7.90;;
8159;SDS011;27404;52.398;9.646;2022-11-15T01:56:13;12.30;;;8.27;;
8159;SDS011;27404;52.398;9.646;2022-11-15T01:58:43;11.57;;;7.60;;
8159;SDS011;27404;52.398;9.646;2022-11-15T02:01:11;10.27;;;7.33;;
8159;SDS011;27404;52.398;9.646;2022-11-15T02:03:39;10.80;;;7.50;;
8159;SDS011;27404;52.398;9.646;2022-11-15T02:06:11;11.30;;;7.23;;
8159;SDS011;27404;52.398;9.646;2022-11-15T02:08:36;10.33;;;7.43;;
8159;SDS011;27404;52.398;9.646;2022-11-15T02:11:04;10.97;;;7.40;;
8159;SDS011;27404;52.398;9.646;2022-11-15T02:13:32;10.60;;;7.93;;
8159;SDS011;27404;52.398;9.646;2022-11-15T02:18:52;12.33;;;7.90;;
8159;SDS011;27404;52.398;9.646;2022-11-15T02:21:40;14.50;;;8.73;;
8159;SDS011;27404;52.398;9.646;2022-11-15T02:32:31;11.97;;;8.27;;
8159;SDS011;27404;52.398;9.646;2022-11-15T02:37:56;12.20;;;8.30;;
8159;SDS011;27404;52.398;9.646;2022-11-15T02:40:53;10.93;;;8.20;;
8159;SDS011;27404;52.398;9.646;2022-11-15T02:43:30;12.23;;;8.37;;
8159;SDS011;27404;52.398;9.646;2022-11-15T02:46:22;11.63;;;7.93;;
8159;SDS011;27404;52.398;9.646;2022-11-15T02:49:13;14.00;;;8.77;;
8159;SDS011;27404;52.398;9.646;2022-11-15T02:51:40;13.40;;;8.70;;
8159;SDS011;27404;52.398;9.646;2022-11-15T02:54:11;13.17;;;8.70;;
8159;SDS011;27404;52.398;9.646;2022-11-15T02:56:39;14.40;;;8.47;;
8159;SDS011;27404;52.398;9.646;2022-11-15T02:59:09;11.73;;;8.37;;
8159;SDS011;27404;52.398;9.646;2022-11-15T03:12:24;14.73;;;8.77;;
8159;SDS011;27404;52.398;9.646;2022-11-15T03:15:18;12.63;;;8.13;;
8159;SDS011;27404;52.398;9.646;2022-11-15T03:17:52;10.93;;;8.30;;
8159;SDS011;27404;52.398;9.646;2022-11-15T03:20:24;12.63;;;7.83;;
8159;SDS011;27404;52.398;9.646;2022-11-15T03:22:52;17.10;;;8.80;;
8159;SDS011;27404;52.398;9.646;2022-11-15T03:25:20;11.00;;;7.87;;
8159;SDS011;27404;52.398;9.646;2022-11-15T03:27:50;17.13;;;9.20;;
8159;SDS011;27404;52.398;9.646;2022-11-15T03:30:18;16.80;;;9.00;;
8159;SDS011;27404;52.398;9.646;2022-11-15T03:32:46;15.67;;;9.13;;
8159;SDS011;27404;52.398;9.646;2022-11-15T03:35:16;13.63;;;9.13;;
8159;SDS011;27404;52.398;9.646;2022-11-15T03:37:59;12.60;;;8.60;;
8159;SDS011;27404;52.398;9.646;2022-11-15T03:46:36;15.73;;;9.67;;
8159;SDS011;27404;52.398;9.646;2022-11-15T03:49:10;15.30;;;9.67;;
8159;SDS011;27404;52.398;9.646;2022-11-15T03:51:41;13.97;;;9.17;;
8159;SDS011;27404;52.398;9.646;2022-11-15T03:54:07;15.07;;;9.03;;
8159;SDS011;27404;52.398;9.646;2022-11-15T03:56:32;15.67;;;8.80;;
8159;SDS011;27404;52.398;9.646;2022-11-15T03:58:58;11.90;;;8.47;;
8159;SDS011;27404;52.398;9.646;2022-11-15T04:01:23;14.23;;;9.27;;
8159;SDS011;27404;52.398;9.646;2022-11-15T04:03:49;11.93;;;7.70;;
8159;SDS011;27404;52.398;9.646;2022-11-15T04:06:14;11.57;;;7.67;;
8159;SDS011;27404;52.398;9.646;2022-11-15T04:08:40;10.03;;;7.43;;
8159;SDS011;27404;52.398;9.646;2022-11-15T04:11:05;10.93;;;7.60;;
8159;SDS011;27404;52.398;9.646;2022-11-15T04:13:31;10.93;;;7.27;;
8159;SDS011;27404;52.398;9.646;2022-11-15T04:15:56;14.27;;;7.83;;
8159;SDS011;27404;52.398;9.646;2022-11-15T04:18:22;10.33;;;7.23;;
8159;SDS011;27404;52.398;9.646;2022-11-15T04:20:47;12.93;;;6.90;;
8159;SDS011;27404;52.398;9.646;2022-11-15T04:23:31;10.50;;;6.70;;
8159;SDS011;27404;52.398;9.646;2022-11-15T04:26:19;11.23;;;6.47;;
8159;SDS011;27404;52.398;9.646;2022-11-15T04:28:47;9.97;;;6.10;;
8159;SDS011;27404;52.398;9.646;2022-11-15T04:31:31;10.70;;;6.47;;
8159;SDS011;27404;52.398;9.646;2022-11-15T04:33:57;6.87;;;5.40;;
8159;SDS011;27404;52.398;9.646;2022-11-15T04:36:22;6.93;;;5.13;;
8159;SDS011;27404;52.398;9.646;2022-11-15T04:39:07;9.70;;;5.83;;
8159;SDS011;27404;52.398;9.646;2022-11-15T04:41:35;9.33;;;5.27;;
8159;SDS011;27404;52.398;9.646;2022-11-15T04:44:00;7.70;;;4.93;;
8159;SDS011;27404;52.398;9.646;2022-11-15T04:46:26;9.37;;;5.33;;
8159;SDS011;27404;52.398;9.646;2022-11-15T04:48:52;8.13;;;5.17;;
8159;SDS011;27404;52.398;9.646;2022-11-15T04:51:18;7.40;;;4.77;;
8159;SDS011;27404;52.398;9.646;2022-11-15T04:53:44;8.50;;;5.33;;
8159;SDS011;27404;52.398;9.646;2022-11-15T04:56:10;7.27;;;5.07;;
8159;SDS011;27404;52.398;9.646;2022-11-15T04:58:35;8.47;;;5.13;;
8159;SDS011;27404;52.398;9.646;2022-11-15T05:01:08;9.40;;;5.00;;
8159;SDS011;27404;52.398;9.646;2022-11-15T05:03:34;7.87;;;5.00;;
8159;SDS011;27404;52.398;9.646;2022-11-15T05:06:18;8.90;;;4.80;;
8159;SDS011;27404;52.398;9.646;2022-11-15T05:08:44;6.70;;;4.77;;
8159;SDS011;27404;52.398;9.646;2022-11-15T05:11:09;7.40;;;5.17;;
8159;SDS011;27404;52.398;9.646;2022-11-15T05:13:35;8.53;;;5.00;;
8159;SDS011;27404;52.398;9.646;2022-11-15T05:16:00;9.13;;;5.10;;
8159;SDS011;27404;52.398;9.646;2022-11-15T05:18:26;7.50;;;5.00;;
8159;SDS011;27404;52.398;9.646;2022-11-15T05:20:51;8.80;;;4.80;;
8159;SDS011;27404;52.398;9.646;2022-11-15T05:23:16;10.57;;;5.00;;
8159;SDS011;27404;52.398;9.646;2022-11-15T05:25:42;6.47;;;4.67;;
8159;SDS011;27404;52.398;9.646;2022-11-15T05:28:07;7.50;;;5.13;;
8159;SDS011;27404;52.398;9.646;2022-11-15T05:30:33;8.30;;;4.67;;
8159;SDS011;27404;52.398;9.646;2022-11-15T05:32:59;7.60;;;4.83;;
8159;SDS011;27404;52.398;9.646;2022-11-15T05:35:46;8.63;;;4.50;;
8159;SDS011;27404;52.398;9.646;2022-11-15T05:38:19;7.80;;;5.10;;
8159;SDS011;27404;52.398;9.646;2022-11-15T05:40:44;9.73;;;4.97;;
8159;SDS011;27404;52.398;9.646;2022-11-15T05:43:10;9.63;;;6.27;;
8159;SDS011;27404;52.398;9.646;2022-11-15T05:45:36;8.00;;;5.30;;
8159;SDS011;27404;52.398;9.646;2022-11-15T05:48:03;8.00;;;4.90;;
8159;SDS011;27404;52.398;9.646;2022-11-15T05:50:31;7.03;;;5.00;;
8159;SDS011;27404;52.398;9.646;2022-11-15T05:52:58;8.07;;;4.77;;
8159;SDS011;27404;52.398;9.646;2022-11-15T05:55:24;9.87;;;5.40;;
8159;SDS011;27404;52.398;9.646;2022-11-15T05:57:50;6.50;;;4.97;;
8159;SDS011;27404;52.398;9.646;2022-11-15T06:00:15;9.70;;;5.43;;
8159;SDS011;27404;52.398;9.646;2022-11-15T06:02:41;8.17;;;4.90;;
8159;SDS011;27404;52.398;9.646;2022-11-15T06:05:07;8.57;;;5.03;;
8159;SDS011;27404;52.398;9.646;2022-11-15T06:07:33;8.03;;;5.00;;
8159;SDS011;27404;52.398;9.646;2022-11-15T06:09:58;6.83;;;4.60;;
8159;SDS011;27404;52.398;9.646;2022-11-15T06:12:24;11.77;;;5.13;;
8159;SDS011;27404;52.398;9.646;2022-11-15T06:14:49;8.60;;;5.00;;
8159;SDS011;27404;52.398;9.646;2022-11-15T06:17:14;8.33;;;5.03;;
8159;SDS011;27404;52.398;9.646;2022-11-15T06:19:40;9.40;;;5.47;;
8159;SDS011;27404;52.398;9.646;2022-11-15T06:22:05;8.27;;;5.03;;
8159;SDS011;27404;52.398;9.646;2022-11-15T06:24:31;7.23;;;5.10;;
8159;SDS011;27404;52.398;9.646;2022-11-15T06:26:57;9.50;;;5.03;;
8159;SDS011;27404;52.398;9.646;2022-11-15T06:29:22;8.00;;;5.60;;
8159;SDS011;27404;52.398;9.646;2022-11-15T06:31:48;8.57;;;5.43;;
8159;SDS011;27404;52.398;9.646;2022-11-15T06:34:13;11.83;;;6.37;;
8159;SDS011;27404;52.398;9.646;2022-11-15T06:36:39;7.30;;;5.27;;
8159;SDS011;27404;52.398;9.646;2022-11-15T06:39:04;8.37;;;5.83;;
8159;SDS011;27404;52.398;9.646;2022-11-15T06:41:30;13.53;;;6.37;;
8159;SDS011;27404;52.398;9.646;2022-11-15T06:43:58;9.13;;;5.80;;
8159;SDS011;27404;52.398;9.646;2022-11-15T06:46:24;11.10;;;6.20;;
8159;SDS011;27404;52.398;9.646;2022-11-15T06:48:52;7.33;;;5.87;;
8159;SDS011;27404;52.398;9.646;2022-11-15T06:51:18;10.27;;;5.90;;
8159;SDS011;27404;52.398;9.646;2022-11-15T06:53:44;10.27;;;5.57;;
8159;SDS011;27404;52.398;9.646;2022-11-15T06:56:10;11.80;;;6.30;;
8159;SDS011;27404;52.398;9.646;2022-11-15T06:58:35;9.00;;;5.80;;
8159;SDS011;27404;52.398;9.646;2022-11-15T07:01:02;10.17;;;5.50;;
8159;SDS011;27404;52.398;9.646;2022-11-15T07:03:30;10.17;;;5.77;;
8159;SDS011;27404;52.398;9.646;2022-11-15T07:05:56;9.77;;;6.27;;
8159;SDS011;27404;52.398;9.646;2022-11-15T07:08:23;10.53;;;5.57;;
8159;SDS011;27404;52.398;9.646;2022-11-15T07:10:51;14.73;;;6.13;;
8159;SDS011;27404;52.398;9.646;2022-11-15T07:13:20;10.87;;;6.33;;
8159;SDS011;27404;52.398;9.646;2022-11-15T07:15:49;10.93;;;6.83;;
8159;SDS011;27404;52.398;9.646;2022-11-15T07:18:15;9.27;;;6.33;;
8159;SDS011;27404;52.398;9.646;2022-11-15T07:20:40;11.73;;;7.00;;
8159;SDS011;27404;52.398;9.646;2022-11-15T07:23:06;11.40;;;6.87;;
8159;SDS011;27404;52.398;9.646;2022-11-15T07:25:31;10.20;;;6.87;;
8159;SDS011;27404;52.398;9.646;2022-11-15T07:27:57;12.77;;;6.80;;
8159;SDS011;27404;52.398;9.646;2022-11-15T07:30:23;8.93;;;6.57;;
8159;SDS011;27404;52.398;9.646;2022-11-15T07:33:08;10.67;;;6.07;;
8159;SDS011;27404;52.398;9.646;2022-11-15T07:35:33;13.30;;;7.20;;
8159;SDS011;27404;52.398;9.646;2022-11-15T07:38:00;10.73;;;7.43;;
8159;SDS011;27404;52.398;9.646;2022-11-15T07:40:27;12.00;;;6.80;;
8159;SDS011;27404;52.398;9.646;2022-11-15T07:43:03;10.20;;;6.60;;
8159;SDS011;27404;52.398;9.646;2022-11-15T07:45:31;11.33;;;6.43;;
8159;SDS011;27404;52.398;9.646;2022-11-15T07:47:58;9.17;;;6.43;;
8159;SDS011;27404;52.398;9.646;2022-11-15T07:50:24;12.17;;;6.10;;
8159;SDS011;27404;52.398;9.646;2022-11-15T07:52:57;14.50;;;7.37;;
8159;SDS011;27404;52.398;9.646;2022-11-15T07:55:25;11.03;;;7.37;;
8159;SDS011;27404;52.398;9.646;2022-11-15T07:57:52;9.83;;;6.27;;
8159;SDS011;27404;52.398;9.646;2022-11-15T08:00:17;11.20;;;6.30;;
8159;SDS011;27404;52.398;9.646;2022-11-15T08:02:44;9.27;;;5.50;;
8159;SDS011;27404;52.398;9.646;2022-11-15T08:05:10;8.23;;;5.57;;
8159;SDS011;27404;52.398;9.646;2022-11-15T08:07:35;8.60;;;6.23;;
8159;SDS011;27404;52.398;9.646;2022-11-15T08:10:00;10.67;;;5.67;;
8159;SDS011;27404;52.398;9.646;2022-11-15T08:12:29;12.03;;;6.77;;
8159;SDS011;27404;52.398;9.646;2022-11-15T08:14:55;12.20;;;5.93;;
8159;SDS011;27404;52.398;9.646;2022-11-15T08:17:22;11.67;;;5.83;;
8159;SDS011;27404;52.398;9.646;2022-11-15T08:19:48;7.97;;;5.70;;
8159;SDS011;27404;52.398;9.646;2022-11-15T08:22:14;8.80;;;5.30;;
8159;SDS011;27404;52.398;9.646;2022-11-15T08:24:40;11.43;;;5.80;;
8159;SDS011;27404;52.398;9.646;2022-11-15T08:27:05;8.90;;;5.20;;
8159;SDS011;27404;52.398;9.646;2022-11-15T08:29:39;12.47;;;5.10;;
8159;SDS011;27404;52.398;9.646;2022-11-15T08:32:09;8.77;;;5.50;;
8159;SDS011;27404;52.398;9.646;2022-11-15T08:34:35;7.37;;;4.47;;
8159;SDS011;27404;52.398;9.646;2022-11-15T08:37:01;8.73;;;4.57;;
8159;SDS011;27404;52.398;9.646;2022-11-15T08:39:27;7.83;;;4.40;;
8159;SDS011;27404;52.398;9.646;2022-11-15T08:41:53;8.43;;;4.53;;
8159;SDS011;27404;52.398;9.646;2022-11-15T08:44:18;5.60;;;4.50;;
8159;SDS011;27404;52.398;9.646;2022-11-15T08:46:47;6.37;;;4.40;;
8159;SDS011;27404;52.398;9.646;2022-11-15T08:49:13;5.87;;;4.47;;
8159;SDS011;27404;52.398;9.646;2022-11-15T08:51:38;5.27;;;3.63;;
8159;SDS011;27404;52.398;9.646;2022-11-15T08:54:04;8.37;;;4.33;;
8159;SDS011;27404;52.398;9.646;2022-11-15T08:56:29;6.03;;;3.53;;
8159;SDS011;27404;52.398;9.646;2022-11-15T08:58:55;7.97;;;3.53;;
8159;SDS011;27404;52.398;9.646;2022-11-15T09:01:20;5.67;;;3.47;;
8159;SDS011;27404;52.398;9.646;2022-11-15T09:03:46;4.50;;;3.20;;
8159;SDS011;27404;52.398;9.646;2022-11-15T09:06:11;5.00;;;3.50;;
8159;SDS011;27404;52.398;9.646;2022-11-15T09:08:37;6.80;;;3.37;;
8159;SDS011;27404;52.398;9.646;2022-11-15T09:11:06;5.53;;;3.50;;
8159;SDS011;27404;52.398;9.646;2022-11-15T09:13:35;6.30;;;4.13;;
8159;SDS011;27404;52.398;9.646;2022-11-15T09:16:03;5.63;;;3.90;;
8159;SDS011;27404;52.398;9.646;2022-11-15T09:18:30;6.50;;;3.33;;
8159;SDS011;27404;52.398;9.646;2022-11-15T09:20:57;5.10;;;3.67;;
8159;SDS011;27404;52.398;9.646;2022-11-15T09:23:23;6.30;;;3.70;;
8159;SDS011;27404;52.398;9.646;2022-11-15T09:25:50;6.07;;;3.47;;
8159;SDS011;27404;52.398;9.646;2022-11-15T09:28:15;5.47;;;3.30;;
8159;SDS011;27404;52.398;9.646;2022-11-15T09:30:41;5.97;;;3.50;;
8159;SDS011;27404;52.398;9.646;2022-11-15T09:33:11;5.23;;;3.57;;
8159;SDS011;27404;52.398;9.646;2022-11-15T09:35:37;4.57;;;3.47;;
8159;SDS011;27404;52.398;9.646;2022-11-15T09:38:03;6.23;;;3.57;;
8159;SDS011;27404;52.398;9.646;2022-11-15T09:40:29;6.30;;;3.63;;
8159;SDS011;27404;52.398;9.646;2022-11-15T09:43:03;8.40;;;3.77;;
8159;SDS011;27404;52.398;9.646;2022-11-15T09:45:41;4.40;;;3.10;;
8159;SDS011;27404;52.398;9.646;2022-11-15T09:51:04;4.60;;;3.27;;
8159;SDS011;27404;52.398;9.646;2022-11-15T09:53:32;6.20;;;2.90;;
8159;SDS011;27404;52.398;9.646;2022-11-15T09:56:05;6.50;;;3.20;;
8159;SDS011;27404;52.398;9.646;2022-11-15T10:04:16;5.87;;;3.30;;
8159;SDS011;27404;52.398;9.646;2022-11-15T10:06:44;4.97;;;3.43;;
8159;SDS011;27404;52.398;9.646;2022-11-15T10:09:24;6.03;;;3.43;;
8159;SDS011;27404;52.398;9.646;2022-11-15T10:11:54;6.10;;;2.83;;
8159;SDS011;27404;52.398;9.646;2022-11-15T10:14:20;6.90;;;3.10;;
8159;SDS011;27404;52.398;9.646;2022-11-15T10:22:28;6.53;;;3.00;;
8159;SDS011;27404;52.398;9.646;2022-11-15T10:25:24;4.17;;;2.70;;
8159;SDS011;27404;52.398;9.646;2022-11-15T10:27:58;5.73;;;2.87;;
8159;SDS011;27404;52.398;9.646;2022-11-15T10:30:33;5.33;;;2.90;;
8159;SDS011;27404;52.398;9.646;2022-11-15T10:33:13;5.37;;;2.37;;
8159;SDS011;27404;52.398;9.646;2022-11-15T10:35:42;4.47;;;3.07;;
8159;SDS011;27404;52.398;9.646;2022-11-15T10:38:11;4.53;;;2.73;;
8159;SDS011;27404;52.398;9.646;2022-11-15T10:40:38;3.90;;;2.50;;
8159;SDS011;27404;52.398;9.646;2022-11-15T10:43:15;3.87;;;2.37;;
8159;SDS011;27404;52.398;9.646;2022-11-15T10:45:43;3.23;;;2.57;;
8159;SDS011;27404;52.398;9.646;2022-11-15T10:50:37;4.03;;;2.53;;
8159;SDS011;27404;52.398;9.646;2022-11-15T10:53:04;5.87;;;2.53;;
8159;SDS011;27404;52.398;9.646;2022-11-15T10:55:42;4.47;;;2.30;;
8159;SDS011;27404;52.398;9.646;2022-11-15T10:58:28;5.00;;;2.40;;
8159;SDS011;27404;52.398;9.646;2022-11-15T11:01:08;2.80;;;2.30;;
8159;SDS011;27404;52.398;9.646;2022-11-15T11:03:37;3.83;;;2.60;;
8159;SDS011;27404;52.398;9.646;2022-11-15T11:06:22;5.77;;;2.50;;
8159;SDS011;27404;52.398;9.646;2022-11-15T11:08:55;4.70;;;2.93;;
8159;SDS011;27404;52.398;9.646;2022-11-15T11:11:44;2.90;;;2.40;;
8159;SDS011;27404;52.398;9.646;2022-11-15T11:14:33;6.77;;;2.47;;
8159;SDS011;27404;52.398;9.646;2022-11-15T11:30:17;4.27;;;2.77;;
8159;SDS011;27404;52.398;9.646;2022-11-15T11:32:59;3.47;;;2.47;;
8159;SDS011;27404;52.398;9.646;2022-11-15T11:35:30;5.60;;;2.80;;
8159;SDS011;27404;52.398;9.646;2022-11-15T11:40:43;7.63;;;3.10;;
8159;SDS011;27404;52.398;9.646;2022-11-15T11:49:02;4.97;;;2.63;;
8159;SDS011;27404;52.398;9.646;2022-11-15T11:51:36;8.90;;;2.70;;
8159;SDS011;27404;52.398;9.646;2022-11-15T11:54:11;4.87;;;2.23;;
8159;SDS011;27404;52.398;9.646;2022-11-15T11:56:43;3.80;;;2.60;;
8159;SDS011;27404;52.398;9.646;2022-11-15T11:59:19;4.37;;;2.30;;
8159;SDS011;27404;52.398;9.646;2022-11-15T12:01:53;4.73;;;3.00;;
8159;SDS011;27404;52.398;9.646;2022-11-15T12:07:21;4.13;;;2.37;;
8159;SDS011;27404;52.398;9.646;2022-11-15T12:09:55;5.30;;;2.40;;
8159;SDS011;27404;52.398;9.646;2022-11-15T12:15:32;6.43;;;2.60;;
8159;SDS011;27404;52.398;9.646;2022-11-15T12:18:04;3.33;;;2.47;;
8159;SDS011;27404;52.398;9.646;2022-11-15T12:20:36;4.03;;;2.50;;
8159;SDS011;27404;52.398;9.646;2022-11-15T12:23:26;4.17;;;2.67;;
8159;SDS011;27404;52.398;9.646;2022-11-15T12:28:45;6.13;;;2.60;;
8159;SDS011;27404;52.398;9.646;2022-11-15T12:31:16;5.53;;;2.70;;
8159;SDS011;27404;52.398;9.646;2022-11-15T12:33:49;4.43;;;2.70;;
8159;SDS011;27404;52.398;9.646;2022-11-15T12:41:34;4.33;;;2.80;;
8159;SDS011;27404;52.398;9.646;2022-11-15T12:44:08;3.40;;;2.43;;
8159;SDS011;27404;52.398;9.646;2022-11-15T13:20:18;6.23;;;2.90;;
8159;SDS011;27404;52.398;9.646;2022-11-15T13:23:07;4.13;;;2.73;;
8159;SDS011;27404;52.398;9.646;2022-11-15T13:25:46;3.80;;;2.40;;
8159;SDS011;27404;52.398;9.646;2022-11-15T13:28:30;4.97;;;2.93;;
8159;SDS011;27404;52.398;9.646;2022-11-15T13:30:56;5.03;;;2.63;;
8159;SDS011;27404;52.398;9.646;2022-11-15T13:33:25;3.50;;;2.33;;
8159;SDS011;27404;52.398;9.646;2022-11-15T13:35:56;4.37;;;2.30;;
8159;SDS011;27404;52.398;9.646;2022-11-15T13:40:55;4.77;;;2.60;;
8159;SDS011;27404;52.398;9.646;2022-11-15T13:49:00;6.37;;;2.80;;
8159;SDS011;27404;52.398;9.646;2022-11-15T13:57:09;5.87;;;2.93;;
8159;SDS011;27404;52.398;9.646;2022-11-15T13:59:49;3.63;;;2.90;;
8159;SDS011;27404;52.398;9.646;2022-11-15T14:02:18;2.90;;;2.40;;
8159;SDS011;27404;52.398;9.646;2022-11-15T14:04:51;5.57;;;3.00;;
8159;SDS011;27404;52.398;9.646;2022-11-15T14:07:21;5.77;;;2.80;;
8159;SDS011;27404;52.398;9.646;2022-11-15T14:09:49;4.07;;;2.70;;
8159;SDS011;27404;52.398;9.646;2022-11-15T14:12:28;7.17;;;2.93;;
8159;SDS011;27404;52.398;9.646;2022-11-15T14:15:00;4.07;;;2.87;;
8159;SDS011;27404;52.398;9.646;2022-11-15T14:17:42;5.57;;;2.70;;
8159;SDS011;27404;52.398;9.646;2022-11-15T14:22:56;3.30;;;2.67;;
8159;SDS011;27404;52.398;9.646;2022-11-15T14:26:10;4.73;;;2.80;;
8159;SDS011;27404;52.398;9.646;2022-11-15T14:30:47;3.40;;;2.60;;
8159;SDS011;27404;52.398;9.646;2022-11-15T14:36:17;4.47;;;2.67;;
8159;SDS011;27404;52.398;9.646;2022-11-15T14:38:45;6.67;;;2.70;;
8159;SDS011;27404;52.398;9.646;2022-11-15T14:43:50;8.70;;;2.90;;
8159;SDS011;27404;52.398;9.646;2022-11-15T14:46:16;3.60;;;2.60;;
8159;SDS011;27404;52.398;9.646;2022-11-15T14:48:42;9.67;;;3.40;;
8159;SDS011;27404;52.398;9.646;2022-11-15T14:51:10;5.93;;;2.83;;
8159;SDS011;27404;52.398;9.646;2022-11-15T14:53:37;5.37;;;2.80;;
8159;SDS011;27404;52.398;9.646;2022-11-15T14:56:03;4.60;;;2.77;;
8159;SDS011;27404;52.398;9.646;2022-11-15T14:58:29;5.73;;;3.43;;
8159;SDS011;27404;52.398;9.646;2022-11-15T15:00:54;6.13;;;3.10;;
8159;SDS011;27404;52.398;9.646;2022-11-15T15:03:20;4.93;;;2.70;;
8159;SDS011;27404;52.398;9.646;2022-11-15T15:05:45;5.63;;;2.87;;
8159;SDS011;27404;52.398;9.646;2022-11-15T15:08:11;4.93;;;2.80;;
8159;SDS011;27404;52.398;9.646;2022-11-15T15:10:38;5.63;;;3.17;;
8159;SDS011;27404;52.398;9.646;2022-11-15T15:13:18;4.40;;;2.80;;
8159;SDS011;27404;52.398;9.646;2022-11-15T15:15:47;4.43;;;3.10;;
8159;SDS011;27404;52.398;9.646;2022-11-15T15:18:13;5.77;;;3.07;;
8159;SDS011;27404;52.398;9.646;2022-11-15T15:20:40;7.93;;;2.97;;
8159;SDS011;27404;52.398;9.646;2022-11-15T15:23:18;5.23;;;2.60;;
8159;SDS011;27404;52.398;9.646;2022-11-15T15:25:44;5.10;;;2.80;;
8159;SDS011;27404;52.398;9.646;2022-11-15T15:28:12;6.43;;;2.97;;
8159;SDS011;27404;52.398;9.646;2022-11-15T15:30:38;7.10;;;3.07;;
8159;SDS011;27404;52.398;9.646;2022-11-15T15:33:04;5.67;;;2.73;;
8159;SDS011;27404;52.398;9.646;2022-11-15T15:35:32;4.47;;;2.90;;
8159;SDS011;27404;52.398;9.646;2022-11-15T15:37:58;4.53;;;2.97;;
8159;SDS011;27404;52.398;9.646;2022-11-15T15:40:25;7.47;;;2.80;;
8159;SDS011;27404;52.398;9.646;2022-11-15T15:42:52;6.57;;;3.03;;
8159;SDS011;27404;52.398;9.646;2022-11-15T15:45:18;6.00;;;2.47;;
8159;SDS011;27404;52.398;9.646;2022-11-15T15:47:44;4.53;;;2.47;;
8159;SDS011;27404;52.398;9.646;2022-11-15T15:50:27;5.43;;;2.87;;
8159;SDS011;27404;52.398;9.646;2022-11-15T15:52:57;5.00;;;2.83;;
8159;SDS011;27404;52.398;9.646;2022-11-15T15:55:24;6.00;;;2.80;;
8159;SDS011;27404;52.398;9.646;2022-11-15T15:57:50;6.20;;;2.80;;
8159;SDS011;27404;52.398;9.646;2022-11-15T16:00:16;6.23;;;2.77;;
8159;SDS011;27404;52.398;9.646;2022-11-15T16:02:43;5.47;;;3.03;;
8159;SDS011;27404;52.398;9.646;2022-11-15T16:05:09;4.47;;;2.70;;
8159;SDS011;27404;52.398;9.646;2022-11-15T16:07:36;5.10;;;3.10;;
8159;SDS011;27404;52.398;9.646;2022-11-15T16:10:04;4.63;;;3.03;;
8159;SDS011;27404;52.398;9.646;2022-11-15T16:12:44;6.60;;;2.97;;
8159;SDS011;27404;52.398;9.646;2022-11-15T16:15:09;3.47;;;2.53;;
8159;SDS011;27404;52.398;9.646;2022-11-15T16:17:37;4.90;;;3.20;;
8159;SDS011;27404;52.398;9.646;2022-11-15T16:20:06;4.57;;;2.90;;
8159;SDS011;27404;52.398;9.646;2022-11-15T16:22:31;5.30;;;3.47;;
8159;SDS011;27404;52.398;9.646;2022-11-15T16:24:57;3.30;;;2.70;;
8159;SDS011;27404;52.398;9.646;2022-11-15T16:27:23;4.13;;;2.80;;
8159;SDS011;27404;52.398;9.646;2022-11-15T16:29:48;5.90;;;3.10;;
8159;SDS011;27404;52.398;9.646;2022-11-15T16:32:14;7.43;;;3.00;;
8159;SDS011;27404;52.398;9.646;2022-11-15T16:34:40;6.10;;;2.90;;
8159;SDS011;27404;52.398;9.646;2022-11-15T16:37:27;5.17;;;2.80;;
8159;SDS011;27404;52.398;9.646;2022-11-15T16:39:52;6.03;;;2.90;;
8159;SDS011;27404;52.398;9.646;2022-11-15T16:42:17;3.70;;;3.00;;
8159;SDS011;27404;52.398;9.646;2022-11-15T16:44:43;5.87;;;2.90;;
8159;SDS011;27404;52.398;9.646;2022-11-15T16:47:14;5.07;;;3.50;;
8159;SDS011;27404;52.398;9.646;2022-11-15T16:49:46;7.43;;;3.07;;
8159;SDS011;27404;52.398;9.646;2022-11-15T16:52:12;8.33;;;3.50;;
8159;SDS011;27404;52.398;9.646;2022-11-15T16:54:38;10.47;;;3.83;;
8159;SDS011;27404;52.398;9.646;2022-11-15T16:57:03;6.50;;;4.00;;
8159;SDS011;27404;52.398;9.646;2022-11-15T16:59:29;8.13;;;3.80;;
8159;SDS011;27404;52.398;9.646;2022-11-15T17:01:56;10.80;;;3.73;;
8159;SDS011;27404;52.398;9.646;2022-11-15T17:04:22;9.97;;;4.33;;
8159;SDS011;27404;52.398;9.646;2022-11-15T17:06:47;9.90;;;3.93;;
8159;SDS011;27404;52.398;9.646;2022-11-15T17:09:20;9.43;;;4.10;;
8159;SDS011;27404;52.398;9.646;2022-11-15T17:11:49;8.13;;;3.70;;
8159;SDS011;27404;52.398;9.646;2022-11-15T17:14:16;7.17;;;4.30;;
8159;SDS011;27404;52.398;9.646;2022-11-15T17:16:41;5.00;;;3.37;;
8159;SDS011;27404;52.398;9.646;2022-11-15T17:19:16;8.30;;;3.67;;
8159;SDS011;27404;52.398;9.646;2022-11-15T17:21:43;10.40;;;4.40;;
8159;SDS011;27404;52.398;9.646;2022-11-15T17:24:10;7.57;;;4.47;;
8159;SDS011;27404;52.398;9.646;2022-11-15T17:26:36;8.03;;;4.27;;
8159;SDS011;27404;52.398;9.646;2022-11-15T17:29:02;9.33;;;3.97;;